Airfield :
LOGIN :

Register | Disclaimer

   EN    FR    IT 

 










Legend :    VFR   Marginal VFR   IFR   Intensive IFR   Very Intensive IFR
Visi :
Ceiling :
>= 8 km
>= 3000ft
5 to 8 km
1000 to 3000 ft
1500m to 5 km
500 to 1000 ft
800 to 1500m
200 to 500 ft
< 800m
< 200 ft
Symbols :   Thunderstorms  Fog  Heavy snow  Heavy precipitations  Wind > 20 kt
SIGMETs :     Misc.  Thunderstorms  Icing  Turbulence  Mountain Waves  Volcanic Ashes







- Airport Elevation : 37 ft
- IATA code : OLB


LIEO - Olbia Costa Smeralda

CURRENT METAR :
  • 211520Z 07007KT 020V150 9999 FEW020 23/13 Q1019

EXPIRED METARs :
  • 211450Z 05010KT 9999 FEW020 23/12 Q1019
  • 211420Z 05010KT 030V090 9999 FEW020 24/12 Q1019
  • 211350Z 05011KT 030V090 9999 FEW020 23/12 Q1019
  • 211320Z 06011KT 030V090 CAVOK 24/10 Q1019
  • 211250Z 07010KT 030V130 CAVOK 24/09 Q1019

TAF TAF LIEO
Valid from the 21 at 12:00 until the 22 at 12:00 UTC


211100Z 2112/2212 06012KT 9999 SCT030
BECMG 2118/2120 VRB05KT
BECMG 2208/2210 06012KT
No reported NOTAMs for that airfield.



MET'MAP, your aeronautical weather chart ! - Copyright ORBIFLY December 2007 - Disclaimer

ORBIFLY MET'MAP TEAM :

Programming & Development : Alexandra Zaïnal
Concept & Development : Baudouin d'Aumeries
Co-Development & Prog : Marc-Olivier Méhu
Technical & hardware support : Manuel Goepfert

Contact : metmap@orbifly.com




SOURCES & CREDITS :

   NOAA